Time;durP1;ratioP1;P1;durP2;ratioP2;P2;SDS_P1;SDS_P2;PMS_P1;PMS_P2;Temp;Humidity;BMP_temperature;BMP_pressure;BME280_temperature;BME280_humidity;BME280_pressure;Samples;Min_cycle;Max_cycle;Signal;HPM_P1;HPM_P2
2022/03/30 00:00:13;;;;;;;21.73;14.00;;;12.70;50.20;;;13.11;43.41;96429.41;5009691;28;20048;-45
2022/03/30 00:02:41;;;;;;;18.75;13.25;;;12.70;50.30;;;13.10;43.45;96435.78;5010050;28;20267;-48
2022/03/30 00:05:10;;;;;;;26.05;15.98;;;12.70;50.10;;;13.10;42.99;96430.44;5009982;28;20072;-45
2022/03/30 00:07:38;;;;;;;19.25;12.95;;;12.60;49.80;;;13.09;43.29;96424.28;5010323;28;20248;-45
2022/03/30 00:10:07;;;;;;;24.65;14.27;;;12.70;49.80;;;13.07;43.50;96423.66;5010359;28;20057;-46
2022/03/30 00:12:35;;;;;;;18.02;11.80;;;12.70;50.60;;;13.09;43.47;96428.81;5009602;28;20050;-46
2022/03/30 00:15:03;;;;;;;18.63;13.25;;;12.70;50.00;;;13.09;43.32;96416.25;5009779;28;20057;-47
2022/03/30 00:17:31;;;;;;;20.23;12.82;;;12.70;50.10;;;13.10;43.47;96422.41;5010406;28;20327;-51
2022/03/30 00:19:59;;;;;;;19.25;13.77;;;12.70;50.20;;;13.10;43.71;96419.75;5009684;28;20058;-47
2022/03/30 00:22:28;;;;;;;21.65;14.27;;;12.70;50.10;;;13.06;43.70;96418.50;5009182;28;20362;-47
2022/03/30 00:24:55;;;;;;;25.60;13.68;;;12.60;50.30;;;13.00;43.72;96420.16;5010272;28;20053;-47
2022/03/30 00:27:23;;;;;;;23.10;14.75;;;12.60;50.70;;;12.98;44.15;96424.88;5007338;28;20077;-46
2022/03/30 00:29:51;;;;;;;19.10;13.05;;;12.60;51.10;;;12.98;43.84;96424.88;5007474;28;20066;-47
2022/03/30 00:32:19;;;;;;;19.90;14.00;;;12.50;50.80;;;12.93;44.08;96425.53;5009468;28;20046;-47
2022/03/30 00:34:47;;;;;;;20.40;13.55;;;12.50;51.10;;;12.95;44.28;96422.63;5009569;28;20068;-47
2022/03/30 00:37:15;;;;;;;20.55;14.27;;;12.50;51.30;;;12.96;44.31;96426.94;5009765;28;20203;-47
2022/03/30 00:39:43;;;;;;;20.83;14.07;;;12.50;51.10;;;12.91;44.27;96421.38;5009332;28;20072;-46
2022/03/30 00:42:20;;;;;;;23.25;15.68;;;12.40;51.70;;;12.75;44.37;96417.28;5009455;28;20062;-46
2022/03/30 00:44:48;;;;;;;24.02;15.45;;;12.20;53.00;;;12.67;44.78;96415.63;5008999;28;20049;-45
2022/03/30 00:47:23;;;;;;;22.70;14.13;;;12.00;53.20;;;12.61;45.11;96414.59;5008636;28;20057;-48
2022/03/30 00:49:52;;;;;;;21.45;14.90;;;12.00;53.00;;;12.66;45.14;96411.34;5009486;28;20283;-46
2022/03/30 00:52:20;;;;;;;19.73;13.90;;;12.20;52.60;;;12.73;45.10;96412.13;5008148;28;20060;-48
2022/03/30 00:54:51;;;;;;;22.58;15.02;;;12.30;52.30;;;12.79;45.43;96413.16;5008416;28;20046;-46
2022/03/30 00:57:23;;;;;;;24.83;16.05;;;12.40;52.70;;;12.80;45.54;96409.50;5009647;28;20360;-47
2022/03/30 00:59:51;;;;;;;22.23;14.07;;;12.40;53.00;;;12.82;45.11;96406.63;5009477;28;20068;-45
2022/03/30 01:02:21;;;;;;;24.70;13.70;;;12.40;52.40;;;12.85;45.37;96409.69;5009691;28;20053;-48
2022/03/30 01:04:50;;;;;;;25.52;15.02;;;12.50;52.90;;;12.90;45.30;96403.72;5007721;28;20217;-49
2022/03/30 01:07:18;;;;;;;21.38;12.93;;;12.60;52.70;;;12.96;45.21;96400.22;5009459;28;20042;-45
2022/03/30 01:09:46;;;;;;;22.98;13.98;;;12.60;52.30;;;12.94;45.30;96392.41;5009139;28;20243;-46
2022/03/30 01:12:15;;;;;;;20.35;12.73;;;12.60;52.30;;;12.93;45.08;96397.97;5009059;28;20547;-45
2022/03/30 01:14:47;;;;;;;25.70;15.23;;;12.60;52.30;;;12.90;45.16;96388.53;5007934;28;20056;-46
2022/03/30 01:17:15;;;;;;;22.73;13.95;;;12.50;53.20;;;12.89;45.17;96396.72;5008977;28;20062;-46
2022/03/30 01:19:43;;;;;;;21.75;14.48;;;12.50;53.00;;;12.88;45.37;96389.75;5008961;28;20061;-49
2022/03/30 01:22:11;;;;;;;21.58;14.93;;;12.50;53.00;;;12.89;45.53;96388.72;5007547;28;20049;-45
2022/03/30 01:24:39;;;;;;;18.90;13.43;;;12.50;53.30;;;12.88;45.72;96387.91;5006964;28;20244;-46
2022/03/30 01:27:07;;;;;;;21.58;13.45;;;12.50;53.00;;;12.89;45.76;96378.88;5008419;28;20044;-46
2022/03/30 01:32:29;;;;;;;24.10;13.88;;;12.50;53.00;;;12.89;45.80;96368.19;5008089;28;20049;-45
2022/03/30 01:35:00;;;;;;;22.30;14.63;;;12.50;53.80;;;12.90;45.74;96353.78;5008686;28;20458;-47
2022/03/30 01:37:29;;;;;;;18.35;13.65;;;12.50;53.30;;;12.90;45.76;96356.47;5007716;28;20068;-47
2022/03/30 01:40:00;;;;;;;20.85;13.75;;;12.50;53.10;;;12.90;46.10;96358.31;5008679;28;20343;-47
2022/03/30 01:42:30;;;;;;;25.27;16.17;;;12.50;53.20;;;12.91;45.55;96355.47;5008057;28;20236;-46
2022/03/30 01:44:58;;;;;;;20.80;15.40;;;12.50;52.50;;;12.87;45.15;96353.38;5008419;28;20221;-47
2022/03/30 01:47:26;;;;;;;27.58;15.27;;;12.50;52.30;;;12.88;45.65;96355.03;5007086;28;20041;-48
2022/03/30 01:49:54;;;;;;;24.77;14.38;;;12.50;52.60;;;12.92;45.63;96350.94;5007218;28;20042;-46
2022/03/30 01:52:22;;;;;;;22.65;14.38;;;12.60;52.70;;;12.95;46.09;96351.34;5008461;28;20061;-45
2022/03/30 01:54:50;;;;;;;18.92;13.52;;;12.70;53.30;;;12.99;46.18;96349.06;5007766;28;20217;-45
2022/03/30 01:57:18;;;;;;;28.58;15.48;;;12.70;53.70;;;13.00;46.22;96343.50;5007730;28;20045;-51
2022/03/30 01:59:46;;;;;;;22.45;14.80;;;12.70;53.50;;;13.00;46.56;96343.50;5008182;28;20058;-48
2022/03/30 02:02:14;;;;;;;22.98;15.18;;;12.70;54.40;;;13.03;46.46;96339.63;5007808;28;20054;-46
2022/03/30 02:04:42;;;;;;;21.65;13.55;;;12.70;54.40;;;13.04;47.01;96332.41;5009127;28;20228;-45
2022/03/30 02:07:10;;;;;;;20.73;13.80;;;12.70;54.80;;;13.04;46.89;96327.06;5008148;28;20057;-45
2022/03/30 02:09:38;;;;;;;18.70;13.50;;;12.70;54.50;;;12.99;46.89;96325.03;5008250;28;20562;-47
2022/03/30 02:12:07;;;;;;;21.80;13.70;;;12.60;55.20;;;12.82;48.23;96305.13;5008127;28;20049;-45
2022/03/30 02:14:35;;;;;;;25.48;15.00;;;12.30;57.10;;;12.79;48.01;96312.53;5008269;28;20061;-50
2022/03/30 02:17:03;;;;;;;24.33;15.80;;;12.30;57.00;;;12.82;47.76;96310.47;5008531;28;20058;-45
2022/03/30 02:19:31;;;;;;;19.75;13.77;;;12.30;56.70;;;12.73;48.54;96304.50;5008288;28;20054;-46
2022/03/30 02:21:59;;;;;;;20.30;14.70;;;12.20;60.30;;;12.60;48.49;96311.53;5006672;28;20045;-46
2022/03/30 02:24:27;;;;;;;23.30;14.52;;;12.00;59.10;;;12.60;48.63;96297.31;5008028;28;20068;-48
2022/03/30 02:26:55;;;;;;;24.75;16.08;;;12.00;58.40;;;12.61;48.90;96293.66;5007652;28;20060;-47
2022/03/30 02:29:23;;;;;;;21.27;15.13;;;12.20;58.40;;;12.62;49.12;96295.31;5007399;28;20050;-47
2022/03/30 02:31:52;;;;;;;19.48;14.63;;;12.20;58.80;;;12.59;49.02;96291.19;5006304;28;20054;-45
2022/03/30 02:34:20;;;;;;;21.75;15.30;;;12.10;58.60;;;12.61;49.20;96282.97;5006801;28;20085;-45
2022/03/30 02:36:48;;;;;;;22.10;14.98;;;12.20;58.50;;;12.63;49.38;96283.56;5008968;28;20049;-47
2022/03/30 02:39:18;;;;;;;25.85;15.00;;;12.20;58.40;;;12.63;49.18;96277.44;5006116;28;20057;-47
2022/03/30 02:41:46;;;;;;;25.08;15.55;;;12.20;58.40;;;12.63;49.24;96278.25;5006615;28;20057;-46
2022/03/30 02:44:14;;;;;;;21.73;16.58;;;12.20;58.10;;;12.61;49.18;96273.09;5007045;28;20060;-47
2022/03/30 02:46:42;;;;;;;24.88;15.45;;;12.20;58.60;;;12.59;49.50;96271.66;5006389;28;20060;-48
2022/03/30 02:49:10;;;;;;;23.35;15.13;;;12.20;58.60;;;12.57;49.31;96273.72;5006436;28;20068;-49
2022/03/30 02:51:39;;;;;;;19.50;14.40;;;12.20;58.40;;;12.56;49.31;96272.91;5006173;28;20054;-51
2022/03/30 02:54:08;;;;;;;23.10;15.93;;;12.10;58.60;;;12.57;49.17;96271.06;5007518;28;20470;-47
2022/03/30 02:56:35;;;;;;;27.77;17.90;;;12.20;57.70;;;12.56;48.83;96270.25;5007335;28;20324;-47
2022/03/30 02:59:03;;;;;;;25.60;14.88;;;12.20;57.40;;;12.57;48.28;96261.19;5007012;28;20046;-45
2022/03/30 03:01:32;;;;;;;21.80;15.77;;;12.10;57.00;;;12.59;48.62;96264.47;5007473;28;20049;-45
2022/03/30 03:04:00;;;;;;;22.52;15.73;;;12.20;57.00;;;12.61;48.26;96261.59;5007246;28;20053;-45
2022/03/30 03:06:28;;;;;;;24.58;15.80;;;12.20;56.70;;;12.61;48.43;96267.75;5006376;28;20071;-49
2022/03/30 03:08:57;;;;;;;24.10;17.08;;;12.20;56.80;;;12.61;48.15;96256.28;5006434;28;20156;-49
2022/03/30 03:11:25;;;;;;;25.92;16.38;;;12.20;56.80;;;12.61;48.23;96254.41;5007281;28;20324;-45
2022/03/30 03:13:53;;;;;;;26.08;16.52;;;12.20;56.60;;;12.60;48.39;96254.59;5007474;28;20046;-46
2022/03/30 03:16:21;;;;;;;28.50;18.45;;;12.20;56.70;;;12.59;48.16;96252.97;5007252;28;20056;-46
2022/03/30 03:18:48;;;;;;;24.80;15.70;;;12.20;56.80;;;12.56;48.55;96251.56;5007309;28;20058;-46
2022/03/30 03:21:16;;;;;;;24.83;16.55;;;12.10;56.90;;;12.49;48.68;96241.91;5007013;28;20432;-46
2022/03/30 03:23:44;;;;;;;22.35;15.57;;;12.00;57.20;;;12.46;48.71;96245.00;5006111;28;20058;-50
2022/03/30 03:26:12;;;;;;;22.90;14.75;;;12.00;57.30;;;12.47;48.69;96243.97;5006665;28;20068;-48
2022/03/30 03:28:40;;;;;;;24.45;16.67;;;12.00;57.00;;;12.47;48.68;96241.31;5006390;28;20046;-46
2022/03/30 03:31:08;;;;;;;25.42;15.73;;;12.10;57.40;;;12.48;48.68;96240.25;5006274;28;20266;-48
2022/03/30 03:33:36;;;;;;;24.95;16.55;;;12.10;57.20;;;12.48;48.56;96235.75;5005170;28;20061;-46
2022/03/30 03:36:05;;;;;;;29.85;17.08;;;12.10;57.40;;;12.49;48.90;96242.72;5007423;28;20332;-46
2022/03/30 03:38:33;;;;;;;23.30;15.30;;;12.10;57.30;;;12.48;48.83;96240.25;5006148;28;20065;-48
2022/03/30 03:41:01;;;;;;;28.35;15.07;;;12.10;57.30;;;12.45;48.66;96233.50;5007241;28;20256;-45
2022/03/30 03:43:28;;;;;;;21.98;16.17;;;12.00;57.30;;;12.44;48.74;96231.84;5006627;28;20080;-46
2022/03/30 03:45:56;;;;;;;29.17;19.70;;;12.00;57.50;;;12.44;48.91;96228.38;5006786;28;20046;-46
2022/03/30 03:48:24;;;;;;;24.33;16.75;;;12.10;57.50;;;12.45;49.06;96228.16;5005803;28;20272;-46
2022/03/30 03:50:52;;;;;;;23.77;15.95;;;12.10;57.60;;;12.46;48.96;96228.97;5006485;28;20042;-45
2022/03/30 03:53:20;;;;;;;21.83;15.27;;;12.10;57.30;;;12.47;49.00;96230.63;5007362;28;20046;-45
2022/03/30 03:55:48;;;;;;;21.35;14.25;;;12.10;57.30;;;12.43;48.96;96232.88;5005030;28;20045;-49
2022/03/30 03:58:16;;;;;;;20.92;14.02;;;12.00;57.60;;;12.39;49.10;96221.00;5006687;28;20055;-48
2022/03/30 04:00:45;;;;;;;26.38;14.55;;;11.90;57.70;;;12.38;49.11;96227.34;5006205;28;20293;-46
2022/03/30 04:03:13;;;;;;;24.27;15.23;;;11.90;57.60;;;12.40;48.78;96231.44;5005977;28;20379;-46
2022/03/30 04:05:41;;;;;;;23.77;13.80;;;12.00;57.60;;;12.40;48.79;96228.78;5006304;28;20060;-46
2022/03/30 04:08:10;;;;;;;21.55;13.80;;;12.00;57.40;;;12.42;48.80;96228.56;5021762;28;20058;-45
2022/03/30 04:10:39;;;;;;;20.15;13.63;;;12.10;57.20;;;12.44;49.04;96237.19;5006002;28;20354;-45
2022/03/30 04:13:07;;;;;;;26.70;17.25;;;12.20;57.50;;;12.45;49.65;96238.84;5006215;28;20079;-46
2022/03/30 04:15:39;;;;;;;23.58;16.23;;;12.20;58.50;;;12.41;50.11;96234.94;5005959;28;20352;-48
2022/03/30 04:18:07;;;;;;;23.77;14.32;;;12.10;58.70;;;12.39;50.20;96234.34;5007745;28;20058;-46
2022/03/30 04:20:37;;;;;;;22.30;13.93;;;12.00;59.80;;;12.38;50.05;96238.03;5008888;28;20272;-47
2022/03/30 04:23:04;;;;;;;27.58;18.90;;;12.10;59.20;;;12.38;51.07;96230.00;5009834;28;20457;-46
2022/03/30 04:25:33;;;;;;;22.73;15.40;;;12.00;62.20;;;12.32;51.06;96231.66;5008922;28;20067;-51
2022/03/30 04:28:01;;;;;;;22.45;14.98;;;11.90;60.90;;;12.30;50.90;96233.72;5009013;28;20060;-47
2022/03/30 04:30:30;;;;;;;27.33;16.35;;;11.90;61.30;;;12.27;51.40;96223.47;5009337;28;20050;-47
2022/03/30 04:32:58;;;;;;;22.05;14.77;;;11.90;61.60;;;12.14;52.29;96226.13;5009228;28;20368;-47
2022/03/30 04:35:26;;;;;;;20.38;14.27;;;11.70;65.20;;;11.85;53.37;96235.34;5008614;28;20144;-48
2022/03/30 04:37:57;;;;;;;23.25;15.40;;;11.30;66.90;;;11.81;53.38;96226.91;5009032;28;20247;-45
2022/03/30 04:40:28;;;;;;;20.83;13.60;;;11.30;66.80;;;11.84;53.59;96234.47;5010560;28;20057;-46
2022/03/30 04:42:56;;;;;;;24.27;14.43;;;11.40;66.10;;;11.86;53.26;96239.63;5009566;28;20053;-48
2022/03/30 04:45:24;;;;;;;21.35;12.80;;;11.40;65.20;;;11.88;53.13;96235.72;5009020;28;20364;-45
2022/03/30 04:47:55;;;;;;;20.17;12.00;;;11.50;65.10;;;11.90;53.51;96232.88;5009574;28;20052;-46
2022/03/30 04:50:26;;;;;;;20.45;13.25;;;11.60;65.70;;;11.83;53.80;96238.19;5008908;28;20056;-47
2022/03/30 04:52:54;;;;;;;21.83;12.80;;;11.50;67.00;;;11.89;54.07;96239.22;5009576;28;20217;-48
2022/03/30 04:55:22;;;;;;;19.27;13.15;;;11.50;66.80;;;11.85;54.87;96248.66;5009835;28;20068;-45
2022/03/30 04:57:50;;;;;;;18.93;13.07;;;11.50;69.00;;;11.71;55.99;96240.63;5010054;28;20073;-48
2022/03/30 05:00:18;;;;;;;26.13;14.40;;;11.20;71.70;;;11.50;57.56;96241.63;5008564;28;20046;-49
2022/03/30 05:02:46;;;;;;;24.23;14.57;;;10.90;77.80;;;11.38;57.41;96235.22;5008132;28;20374;-49
2022/03/30 05:05:14;;;;;;;25.67;14.97;;;10.70;78.00;;;11.36;57.05;96238.09;5009362;28;20045;-47
2022/03/30 05:07:42;;;;;;;23.83;15.70;;;10.80;78.10;;;11.43;57.27;96235.44;5009570;28;20052;-45
2022/03/30 05:10:13;;;;;;;25.23;15.77;;;10.90;78.00;;;11.46;57.79;96234.22;5009191;28;20045;-46
2022/03/30 05:12:42;;;;;;;19.30;14.47;;;11.00;78.80;;;11.48;58.09;96233.00;5009381;28;20064;-45
2022/03/30 05:15:11;;;;;;;25.03;14.63;;;11.00;79.40;;;11.53;57.68;96235.06;5008385;28;20407;-45
2022/03/30 05:17:43;;;;;;;25.60;15.30;;;11.00;81.70;;;11.36;59.99;96235.44;5008863;28;20054;-48
2022/03/30 05:20:13;;;;;;;22.30;14.77;;;10.80;85.10;;;11.14;59.77;96232.06;5009558;28;20050;-47
2022/03/30 05:22:42;;;;;;;27.53;15.17;;;10.40;89.40;;;11.10;59.42;96228.16;5009197;28;20076;-47
2022/03/30 05:25:12;;;;;;;23.87;13.70;;;10.40;87.70;;;11.11;59.77;96226.31;5008168;28;20056;-46
2022/03/30 05:27:40;;;;;;;28.97;16.33;;;10.50;88.90;;;11.17;59.58;96228.19;5008692;28;20290;-47
2022/03/30 05:30:10;;;;;;;24.70;14.23;;;10.60;88.00;;;11.22;59.53;96226.59;5009697;28;20057;-47
2022/03/30 05:32:38;;;;;;;23.70;13.60;;;10.70;87.00;;;11.28;59.43;96229.44;5008462;28;20046;-48
2022/03/30 05:35:06;;;;;;;19.27;14.43;;;10.80;86.50;;;11.31;59.42;96229.88;5008752;28;20041;-46
2022/03/30 05:37:34;;;;;;;21.37;13.73;;;10.80;86.40;;;11.31;59.18;96232.53;5009426;28;20072;-47
2022/03/30 05:40:04;;;;;;;25.77;13.60;;;10.80;85.70;;;11.29;59.41;96233.75;5009142;28;20054;-48
2022/03/30 05:42:32;;;;;;;20.23;14.13;;;10.80;86.50;;;11.29;59.56;96231.09;5008371;28;20056;-48
2022/03/30 05:45:00;;;;;;;21.63;15.10;;;10.80;86.40;;;11.31;59.67;96229.06;5023119;28;20252;-51
2022/03/30 05:47:28;;;;;;;26.70;14.47;;;10.80;87.20;;;11.32;59.43;96226.19;5006606;28;20054;-52
2022/03/30 05:49:56;;;;;;;23.83;14.87;;;10.80;86.90;;;11.32;59.83;96231.53;5008343;28;20232;-50
2022/03/30 05:52:24;;;;;;;24.33;14.30;;;10.80;86.70;;;11.34;59.41;96231.31;5007442;28;20046;-47
2022/03/30 05:54:52;;;;;;;22.57;14.60;;;10.90;87.10;;;11.31;60.18;96221.88;5008027;28;20553;-48
2022/03/30 05:57:49;;;;;;;24.53;14.70;;;10.80;88.20;;;11.27;59.93;96220.63;5008129;28;20235;-47
2022/03/30 06:00:17;;;;;;;20.83;14.57;;;10.80;91.20;;;11.27;59.98;96215.31;5007064;28;20197;-49
2022/03/30 06:02:45;;;;;;;22.50;14.50;;;10.70;89.20;;;11.29;59.89;96215.94;5007891;28;20058;-50
2022/03/30 06:05:13;;;;;;;21.00;14.13;;;10.80;88.00;;;11.31;60.13;96210.41;5007898;28;20042;-50
2022/03/30 06:07:41;;;;;;;32.17;19.03;;;10.80;86.80;;;11.28;59.85;96194.81;5009266;28;20062;-49
2022/03/30 06:10:10;;;;;;;19.43;14.77;;;10.80;86.90;;;11.19;60.24;96203.00;5007623;28;20068;-49
2022/03/30 06:12:38;;;;;;;24.07;13.90;;;10.60;88.30;;;11.19;60.25;96202.19;5007161;28;20340;-51
2022/03/30 06:15:07;;;;;;;22.10;14.80;;;10.60;88.60;;;11.20;60.44;96201.16;5006352;28;20054;-49
2022/03/30 06:17:35;;;;;;;22.20;14.63;;;10.70;90.20;;;11.16;60.51;96198.06;5007644;28;20064;-50
2022/03/30 06:20:04;;;;;;;23.30;15.73;;;10.60;91.70;;;11.11;60.93;96205.00;5006056;28;20080;-46
2022/03/30 06:22:32;;;;;;;24.63;15.03;;;10.50;92.00;;;11.08;61.21;96202.75;5006598;28;20061;-50
2022/03/30 06:25:00;;;;;;;24.77;13.70;;;10.50;94.30;;;11.05;61.45;96198.66;5007202;28;20075;-50
2022/03/30 06:27:29;;;;;;;19.53;14.17;;;10.50;95.60;;;11.09;61.56;96204.38;5007262;28;20050;-53
2022/03/30 06:29:57;;;;;;;23.63;13.80;;;10.50;95.70;;;11.11;61.27;96197.84;5008102;28;20061;-51
2022/03/30 06:32:25;;;;;;;24.23;12.80;;;10.60;94.80;;;11.08;61.60;96194.75;5004674;28;20164;-50
2022/03/30 06:34:52;;;;;;;17.67;12.17;;;10.50;93.90;;;11.08;61.68;96197.44;5006399;28;20053;-49
2022/03/30 06:37:20;;;;;;;23.30;13.90;;;10.60;94.00;;;11.10;61.25;96196.19;5007367;28;20056;-52
2022/03/30 06:39:49;;;;;;;24.17;14.60;;;10.60;92.50;;;11.15;61.50;96199.09;5005940;28;20052;-48
2022/03/30 06:42:17;;;;;;;32.83;17.20;;;10.80;93.60;;;11.22;61.86;96191.94;5006936;28;20057;-48
2022/03/30 06:44:46;;;;;;;34.63;18.23;;;10.90;94.10;;;11.28;62.11;96192.97;5006752;28;20060;-48
2022/03/30 06:47:15;;;;;;;28.73;18.43;;;10.90;93.90;;;11.34;61.66;96191.34;5005210;28;20064;-47
2022/03/30 06:49:43;;;;;;;28.45;19.20;;;11.00;93.90;;;11.35;62.03;96188.47;5005760;28;20050;-47
2022/03/30 06:52:11;;;;;;;29.67;19.43;;;11.00;93.90;;;11.37;61.98;96193.63;5006878;28;20049;-49
2022/03/30 06:54:39;;;;;;;37.07;18.17;;;11.00;92.80;;;11.37;61.95;96193.63;5006301;28;20360;-51
2022/03/30 06:57:07;;;;;;;33.22;19.42;;;11.00;94.20;;;11.39;61.82;96192.38;5006311;28;20053;-50
2022/03/30 06:59:35;;;;;;;29.30;16.77;;;11.00;92.80;;;11.39;61.78;96192.38;5007499;28;20060;-48
2022/03/30 07:02:04;;;;;;;32.10;17.63;;;11.00;94.10;;;11.40;61.62;96187.91;5005374;28;20174;-48
2022/03/30 07:04:33;;;;;;;26.20;17.20;;;11.00;95.00;;;11.43;61.72;96192.81;5006168;28;20050;-50
2022/03/30 07:12:54;;;;;;;26.20;16.17;;;11.00;95.60;;;11.41;61.96;96182.34;5023372;28;20083;-47
2022/03/30 07:15:21;;;;;;;28.73;18.33;;;11.00;97.10;;;11.43;61.82;96188.28;5023597;28;20057;-50
2022/03/30 07:17:51;;;;;;;27.63;18.20;;;11.00;96.10;;;11.42;62.39;96183.19;5014442;28;20049;-46
2022/03/30 07:20:22;;;;;;;26.37;16.17;;;11.00;96.70;;;11.42;62.50;96176.00;5007257;28;20057;-50
2022/03/30 07:22:51;;;;;;;24.10;15.83;;;11.00;96.10;;;11.43;62.05;96177.63;5005837;28;20050;-49
2022/03/30 07:25:21;;;;;;;18.43;13.93;;;11.00;96.10;;;11.45;62.33;96176.63;5005628;28;20054;-47
2022/03/30 07:27:53;;;;;;;23.80;14.37;;;11.00;96.60;;;11.46;62.13;96178.25;5006459;28;20062;-49
2022/03/30 07:30:23;;;;;;;27.57;15.30;;;11.00;96.60;;;11.46;62.38;96170.25;5013278;28;20059;-46
2022/03/30 07:32:53;;;;;;;24.03;14.60;;;11.00;97.40;;;11.48;62.58;96168.22;5034109;28;20069;-48
2022/03/30 07:35:24;;;;;;;25.97;14.53;;;11.10;98.00;;;11.50;62.48;96169.66;5032646;28;20053;-48
2022/03/30 07:37:52;;;;;;;28.00;14.47;;;11.10;98.50;;;11.52;62.87;96167.63;5025828;28;20051;-49
2022/03/30 07:40:22;;;;;;;21.20;12.90;;;11.20;98.10;;;11.57;62.44;96170.50;5025867;28;20049;-47
2022/03/30 07:42:52;;;;;;;27.07;13.83;;;11.20;98.10;;;11.57;62.49;96169.66;5025552;28;20049;-50
2022/03/30 07:45:21;;;;;;;24.20;12.57;;;11.10;98.00;;;11.56;62.39;96163.50;5023546;28;20251;-49
2022/03/30 07:47:49;;;;;;;20.70;13.33;;;11.10;98.30;;;11.54;62.93;96170.06;5027013;28;20363;-48
2022/03/30 07:50:17;;;;;;;23.30;13.27;;;11.10;98.40;;;11.52;63.00;96167.63;5026205;28;20053;-52
2022/03/30 07:52:46;;;;;;;29.23;13.93;;;11.10;99.00;;;11.54;63.09;96167.41;5025285;28;20042;-48
2022/03/30 07:55:15;;;;;;;25.53;13.30;;;11.10;99.20;;;11.56;62.91;96163.50;5025796;28;20057;-51
2022/03/30 07:57:42;;;;;;;20.67;12.93;;;11.20;99.90;;;11.63;62.85;96159.00;5030329;28;20050;-47
2022/03/30 08:00:17;;;;;;;23.30;12.90;;;11.30;99.70;;;11.70;62.86;96163.53;5031713;28;20057;-48
2022/03/30 08:02:47;;;;;;;24.03;13.90;;;11.40;99.60;;;11.72;63.16;96162.28;5032623;28;20311;-50
2022/03/30 08:05:17;;;;;;;22.90;14.43;;;11.40;99.30;;;11.75;63.19;96164.56;5039426;28;20048;-47
2022/03/30 08:07:49;;;;;;;21.47;14.23;;;11.40;98.50;;;11.81;62.98;96162.91;5041949;28;20057;-47
2022/03/30 08:10:18;;;;;;;23.88;12.98;;;11.50;99.00;;;11.84;63.04;96170.50;5039278;28;20275;-48
2022/03/30 08:12:48;;;;;;;21.30;12.32;;;11.60;98.60;;;11.90;63.26;96164.38;5023424;28;20051;-48
2022/03/30 08:15:17;;;;;;;22.57;13.40;;;11.70;97.90;;;11.93;63.47;96161.28;5041255;28;20047;-47
2022/03/30 08:17:45;;;;;;;21.13;12.55;;;11.70;98.00;;;11.98;63.19;96166.00;5040921;28;20045;-47
2022/03/30 08:22:25;;;;;;;21.98;13.45;;;11.70;96.90;;;12.00;63.35;96167.47;5046144;28;20055;-48
2022/03/30 08:23:01;;;;;;;19.90;14.03;;;11.80;98.40;;;12.06;63.63;96163.16;5037324;28;20064;-47
2022/03/30 08:25:29;;;;;;;17.92;13.43;;;11.80;98.90;;;12.11;63.32;96159.84;5038818;28;20057;-47
2022/03/30 08:27:57;;;;;;;24.67;13.88;;;11.90;98.80;;;12.17;63.10;96164.34;5034588;28;20378;-48
2022/03/30 08:30:25;;;;;;;28.88;13.98;;;11.90;97.90;;;12.20;63.59;96162.09;5032974;28;20041;-48
2022/03/30 08:32:54;;;;;;;22.15;15.05;;;12.00;98.30;;;12.25;63.08;96164.13;5034838;28;20053;-48
2022/03/30 08:35:22;;;;;;;25.02;13.45;;;12.00;97.30;;;12.30;63.38;96166.19;5032360;28;20052;-48
2022/03/30 08:37:50;;;;;;;23.30;14.07;;;12.10;98.00;;;12.30;63.21;96167.00;5032592;28;20244;-47
2022/03/30 08:40:18;;;;;;;25.63;13.00;;;12.00;97.20;;;12.28;63.32;96177.06;5030138;28;20053;-48
2022/03/30 08:42:48;;;;;;;24.67;14.40;;;12.00;97.40;;;12.22;63.18;96169.91;5032004;28;20053;-47
2022/03/30 08:45:19;;;;;;;20.92;13.20;;;11.80;97.20;;;12.21;63.63;96168.25;5029554;28;20065;-49
2022/03/30 08:47:48;;;;;;;22.67;12.77;;;11.80;98.10;;;12.19;63.05;96167.63;5029108;28;20057;-48
2022/03/30 08:50:16;;;;;;;24.45;13.00;;;11.80;98.20;;;12.16;63.45;96163.53;5030880;28;20048;-48
2022/03/30 08:52:47;;;;;;;24.20;13.05;;;11.80;98.70;;;12.14;63.14;96165.59;5029911;28;20048;-49
2022/03/30 08:55:16;;;;;;;25.17;12.85;;;11.80;96.80;;;12.14;63.63;96178.94;5028388;28;20054;-47
2022/03/30 08:57:45;;;;;;;22.88;12.55;;;11.80;96.90;;;12.15;63.19;96171.75;5029148;28;20192;-48
2022/03/30 09:00:17;;;;;;;20.63;12.73;;;11.80;97.10;;;12.17;62.81;96167.03;5030027;28;20263;-51
2022/03/30 09:03:01;;;;;;;23.25;12.15;;;11.80;94.30;;;12.16;63.16;96166.22;5028878;28;20057;-49
2022/03/30 09:05:33;;;;;;;17.20;11.02;;;11.80;93.80;;;12.14;62.80;96162.94;5013612;28;20061;-49
2022/03/30 09:08:13;;;;;;;24.27;11.77;;;11.70;94.70;;;12.12;62.78;96162.31;5027927;28;20061;-51
2022/03/30 09:10:46;;;;;;;16.23;11.13;;;11.80;94.50;;;12.10;62.54;96163.56;5029520;28;20057;-47
2022/03/30 09:13:19;;;;;;;18.45;11.45;;;11.70;94.00;;;12.06;62.95;96156.97;5030183;28;20045;-49
2022/03/30 09:15:50;;;;;;;19.92;11.50;;;11.60;93.80;;;12.03;62.65;96160.88;5027867;28;20239;-47
2022/03/30 09:18:19;;;;;;;19.88;10.23;;;11.60;94.00;;;12.01;62.85;96161.09;5030095;28;20049;-48
2022/03/30 09:20:55;;;;;;;19.58;11.82;;;11.60;94.80;;;12.01;63.08;96163.75;5028888;28;20367;-50
2022/03/30 09:23:27;;;;;;;22.67;12.50;;;11.60;94.80;;;12.03;62.92;96158.22;5029069;28;20153;-49
2022/03/30 09:25:56;;;;;;;21.15;13.57;;;11.60;94.90;;;12.05;63.05;96155.34;5029567;28;20049;-50
2022/03/30 09:28:26;;;;;;;20.13;10.23;;;11.60;94.30;;;12.04;62.88;96159.03;5028914;28;20370;-47
2022/03/30 09:30:53;;;;;;;19.85;11.23;;;11.60;94.00;;;12.02;62.67;96159.25;5029141;28;20056;-47
2022/03/30 09:33:23;;;;;;;21.77;11.03;;;11.60;93.30;;;12.00;62.77;96150.63;5026219;28;20057;-49
2022/03/30 09:35:51;;;;;;;21.77;11.93;;;11.60;93.60;;;11.99;63.12;96154.31;5027657;28;20057;-48
2022/03/30 09:38:21;;;;;;;26.38;13.65;;;11.60;93.70;;;11.95;62.93;96153.91;5027084;28;20060;-49
2022/03/30 09:40:52;;;;;;;32.13;16.50;;;11.50;93.70;;;11.95;63.21;96153.09;5028250;28;20065;-48
2022/03/30 09:43:34;;;;;;;30.13;16.73;;;11.50;93.40;;;11.97;62.83;96148.38;5028129;28;20686;-49
2022/03/30 09:46:02;;;;;;;19.33;11.63;;;11.50;93.90;;;11.98;63.14;96155.34;5028011;28;20057;-47
2022/03/30 09:48:35;;;;;;;29.60;15.07;;;11.60;93.80;;;11.96;63.37;96149.38;5027738;28;20049;-48
2022/03/30 09:51:06;;;;;;;22.17;12.52;;;11.50;94.60;;;11.93;63.36;96149.81;5027836;28;20057;-47
2022/03/30 09:53:36;;;;;;;22.85;12.00;;;11.50;94.30;;;11.92;62.84;96145.50;5027612;28;20045;-49
2022/03/30 09:56:07;;;;;;;19.77;11.35;;;11.50;94.60;;;11.88;63.24;96150.38;5027292;28;20049;-51
2022/03/30 09:58:39;;;;;;;23.33;10.77;;;11.50;94.70;;;11.87;63.26;96145.28;5028682;28;20348;-46
2022/03/30 10:01:21;;;;;;;20.85;11.23;;;11.40;95.20;;;11.83;63.29;96131.53;5027088;28;20059;-48
2022/03/30 10:04:00;;;;;;;22.53;10.83;;;11.40;95.60;;;11.80;63.31;96139.94;5027813;28;20057;-49
2022/03/30 10:06:35;;;;;;;21.13;12.48;;;11.30;98.30;;;11.75;63.88;96135.22;5026582;28;20049;-51
2022/03/30 10:09:08;;;;;;;20.43;11.33;;;11.30;99.20;;;11.75;63.84;96129.91;5027640;28;20049;-47
2022/03/30 10:11:36;;;;;;;16.50;9.90;;;11.30;99.60;;;11.76;64.11;96134.19;5027318;28;20045;-49
2022/03/30 10:14:05;;;;;;;18.63;9.65;;;11.30;99.20;;;11.79;63.75;96127.66;5027022;28;20051;-49
2022/03/30 10:16:42;;;;;;;16.17;11.95;;;11.40;98.50;;;11.79;63.50;96123.13;5027625;28;20053;-48
2022/03/30 10:19:10;;;;;;;24.70;11.93;;;11.40;97.40;;;11.80;63.87;96123.94;5027887;28;20072;-50
2022/03/30 10:21:59;;;;;;;26.85;13.48;;;11.40;97.90;;;11.77;63.99;96122.50;5027594;28;20192;-46